createdAt,value
2019-04-26T00:01:18.323Z,2.05
2019-04-26T00:03:48.338Z,1.82
2019-04-26T00:06:18.661Z,2.60
2019-04-26T00:08:52.879Z,2.85
2019-04-26T00:11:33.249Z,3.22
2019-04-26T00:14:16.229Z,2.05
2019-04-26T00:16:53.214Z,1.72
2019-04-26T00:19:23.083Z,1.98
2019-04-26T00:21:52.615Z,2.65
2019-04-26T00:24:22.624Z,2.42
2019-04-26T00:26:52.058Z,2.77
2019-04-26T00:29:21.538Z,2.50
2019-04-26T00:31:51.223Z,2.80
2019-04-26T00:34:21.634Z,2.85
2019-04-26T00:36:51.208Z,2.27
2019-04-26T00:39:20.666Z,1.98
2019-04-26T00:41:50.423Z,2.70
2019-04-26T00:44:20.792Z,1.87
2019-04-26T00:46:53.970Z,2.25
2019-04-26T00:49:24.096Z,1.67
2019-04-26T00:51:53.806Z,2.02
2019-04-26T00:54:24.404Z,2.65
2019-04-26T00:56:54.760Z,1.92
2019-04-26T00:59:24.738Z,2.05
2019-04-26T01:01:58.888Z,2.12
2019-04-26T01:04:28.327Z,2.20
2019-04-26T01:06:59.174Z,2.30
2019-04-26T01:09:28.557Z,1.85
2019-04-26T01:11:57.928Z,1.87
2019-04-26T01:14:27.320Z,2.35
2019-04-26T01:16:56.766Z,2.37
2019-04-26T01:19:27.184Z,2.02
2019-04-26T01:22:00.811Z,2.02
2019-04-26T01:24:33.176Z,2.05
2019-04-26T01:27:04.490Z,1.80
2019-04-26T01:29:36.276Z,1.87
2019-04-26T01:32:12.198Z,2.00
2019-04-26T01:37:31.302Z,1.57
2019-04-26T01:40:06.068Z,1.80
2019-04-26T01:42:57.182Z,1.57
2019-04-26T01:45:52.260Z,2.00
2019-04-26T01:48:46.511Z,1.70
2019-04-26T01:51:24.443Z,1.57
2019-04-26T01:53:54.247Z,1.60
2019-04-26T01:56:29.285Z,1.52
2019-04-26T01:58:58.989Z,1.40
2019-04-26T02:01:43.567Z,1.70
2019-04-26T02:04:13.113Z,1.30
2019-04-26T02:06:42.502Z,1.57
2019-04-26T02:09:12.476Z,1.72
2019-04-26T02:11:42.159Z,1.80
2019-04-26T02:14:11.779Z,1.82
2019-04-26T02:16:41.714Z,1.70
2019-04-26T02:19:11.480Z,1.87
2019-04-26T02:21:46.448Z,1.62
2019-04-26T02:24:26.501Z,1.70
2019-04-26T02:26:56.806Z,1.95
2019-04-26T02:29:28.605Z,1.62
2019-04-26T02:32:07.072Z,1.60
2019-04-26T02:34:38.156Z,2.02
2019-04-26T02:37:10.968Z,1.45
2019-04-26T02:39:41.884Z,2.00
2019-04-26T02:42:23.662Z,2.33
2019-04-26T02:45:21.148Z,2.33
2019-04-26T02:47:58.531Z,2.80
2019-04-26T02:50:49.639Z,2.00
2019-04-26T02:53:56.328Z,2.00
2019-04-26T02:56:34.136Z,1.55
2019-04-26T02:59:26.034Z,2.08
2019-04-26T03:01:59.106Z,2.47
2019-04-26T03:04:31.038Z,1.77
2019-04-26T03:07:05.149Z,2.02
2019-04-26T03:09:38.738Z,2.10
2019-04-26T03:12:11.875Z,1.90
2019-04-26T03:15:14.105Z,1.77
2019-04-26T03:17:50.261Z,1.87
2019-04-26T03:20:23.634Z,1.73
2019-04-26T03:23:12.022Z,2.08
2019-04-26T03:26:07.448Z,1.92
2019-04-26T03:29:07.260Z,2.20
2019-04-26T03:32:16.324Z,1.60
2019-04-26T03:34:55.285Z,1.98
2019-04-26T03:37:48.349Z,2.00
2019-04-26T03:40:36.933Z,1.52
2019-04-26T03:43:36.988Z,1.70
2019-04-26T03:46:39.791Z,1.70
2019-04-26T03:49:26.036Z,1.72
2019-04-26T03:52:36.980Z,2.15
2019-04-26T03:55:29.367Z,1.65
2019-04-26T03:58:05.059Z,1.60
2019-04-26T04:00:50.780Z,1.98
2019-04-26T04:03:47.735Z,2.02
2019-04-26T04:06:24.395Z,1.70
2019-04-26T04:08:58.835Z,2.30
2019-04-26T04:11:40.062Z,1.95
2019-04-26T04:14:17.981Z,2.08
2019-04-26T04:17:18.462Z,1.70
2019-04-26T04:20:44.404Z,2.20
2019-04-26T04:23:53.760Z,2.05
2019-04-26T04:26:31.621Z,2.37
2019-04-26T04:29:42.941Z,2.47
2019-04-26T04:32:40.452Z,2.22
2019-04-26T04:35:12.741Z,1.90
2019-04-26T04:38:08.508Z,2.20
2019-04-26T04:41:11.713Z,2.17
2019-04-26T04:43:50.921Z,2.20
2019-04-26T04:46:58.560Z,2.65
2019-04-26T04:49:56.517Z,1.95
2019-04-26T04:52:41.364Z,2.50
2019-04-26T04:55:25.324Z,2.60
2019-04-26T04:58:17.564Z,2.98
2019-04-26T05:01:52.513Z,3.15
2019-04-26T05:04:47.551Z,2.70
2019-04-26T05:07:45.289Z,3.15
2019-04-26T05:10:19.902Z,2.17
2019-04-26T05:13:25.144Z,2.70
2019-04-26T05:16:33.856Z,2.72
2019-04-26T05:19:51.210Z,2.98
2019-04-26T05:22:46.328Z,2.33
2019-04-26T05:26:15.507Z,2.92
2019-04-26T05:29:35.115Z,2.62
2019-04-26T05:32:48.959Z,2.55
2019-04-26T05:35:51.034Z,2.75
2019-04-26T05:38:53.191Z,2.92
2019-04-26T05:41:42.032Z,3.20
2019-04-26T05:44:35.023Z,3.02
2019-04-26T05:47:32.163Z,2.55
2019-04-26T05:50:25.143Z,2.37
2019-04-26T05:53:52.822Z,2.55
2019-04-26T05:57:03.587Z,2.77
2019-04-26T05:59:50.621Z,2.75
2019-04-26T06:03:06.099Z,2.77
2019-04-26T06:06:22.607Z,2.75
2019-04-26T06:09:40.735Z,3.10
2019-04-26T06:12:26.203Z,2.98
2019-04-26T06:15:28.923Z,2.22
2019-04-26T06:18:29.862Z,2.05
2019-04-26T06:21:28.736Z,2.67
2019-04-26T06:24:48.420Z,2.40
2019-04-26T06:27:51.947Z,2.80
2019-04-26T06:30:31.148Z,2.20
2019-04-26T06:33:29.831Z,2.00
2019-04-26T06:36:04.401Z,2.10
2019-04-26T06:39:21.931Z,2.10
2019-04-26T06:42:27.901Z,2.22
2019-04-26T06:45:47.716Z,1.87
2019-04-26T06:48:42.168Z,2.72
2019-04-26T06:51:24.789Z,1.77
2019-04-26T06:54:22.106Z,2.30
2019-04-26T06:57:35.164Z,2.00
2019-04-26T07:00:13.746Z,1.80
2019-04-26T07:03:03.612Z,1.50
2019-04-26T07:05:36.296Z,2.52
2019-04-26T07:08:39.343Z,2.52
2019-04-26T07:11:44.846Z,1.72
2019-04-26T07:14:56.723Z,1.90
2019-04-26T07:17:45.048Z,2.10
2019-04-26T07:20:39.097Z,1.95
2019-04-26T07:23:39.530Z,2.05
2019-04-26T07:26:54.484Z,2.33
2019-04-26T07:30:23.378Z,1.82
2019-04-26T07:33:26.859Z,2.20
2019-04-26T07:36:15.178Z,2.10
2019-04-26T07:39:31.247Z,3.02
2019-04-26T07:42:57.051Z,1.80
2019-04-26T07:46:14.939Z,1.92
2019-04-26T07:49:15.474Z,2.12
2019-04-26T07:52:22.014Z,2.40
2019-04-26T07:55:34.183Z,2.10
2019-04-26T07:58:34.807Z,2.65
2019-04-26T08:01:33.177Z,1.70
2019-04-26T08:04:09.381Z,2.60
2019-04-26T08:06:52.103Z,1.90
2019-04-26T08:09:27.497Z,2.00
2019-04-26T08:12:06.174Z,2.17
2019-04-26T08:14:51.381Z,2.37
2019-04-26T08:17:57.040Z,2.90
2019-04-26T08:20:38.387Z,2.40
2019-04-26T08:23:27.257Z,2.70
2019-04-26T08:25:43.286Z,2.80
2019-04-26T08:28:15.029Z,2.60
2019-04-26T08:30:46.910Z,2.83
2019-04-26T08:33:21.563Z,2.50
2019-04-26T08:35:53.602Z,2.98
2019-04-26T08:38:24.245Z,3.35
2019-04-26T08:40:54.271Z,3.52
2019-04-26T08:43:41.999Z,3.50
2019-04-26T08:46:32.258Z,3.83
2019-04-26T08:49:11.139Z,3.15
2019-04-26T08:51:42.639Z,3.50
2019-04-26T08:54:21.555Z,3.30
2019-04-26T08:56:57.764Z,3.55
2019-04-26T08:59:30.102Z,4.03
2019-04-26T09:02:20.969Z,3.95
2019-04-26T09:05:11.265Z,3.87
2019-04-26T09:07:44.370Z,3.98
2019-04-26T09:10:16.268Z,3.12
2019-04-26T09:12:48.285Z,3.60
2019-04-26T09:15:23.459Z,3.52
2019-04-26T09:17:52.900Z,3.98
2019-04-26T09:20:29.412Z,3.75
2019-04-26T09:23:10.996Z,3.98
2019-04-26T09:25:45.095Z,4.20
2019-04-26T09:28:29.962Z,4.08
2019-04-26T09:31:11.196Z,4.08
2019-04-26T09:33:53.883Z,3.67
2019-04-26T09:36:23.559Z,4.25
2019-04-26T09:38:53.780Z,3.98
2019-04-26T09:41:26.510Z,3.85
2019-04-26T09:44:00.275Z,4.70
2019-04-26T09:46:57.811Z,4.30
2019-04-26T09:49:44.875Z,4.07
2019-04-26T09:52:18.683Z,4.20
2019-04-26T09:54:48.231Z,4.33
2019-04-26T09:57:17.861Z,4.95
2019-04-26T09:59:47.239Z,4.90
2019-04-26T10:02:16.688Z,4.92
2019-04-26T10:04:46.635Z,4.97
2019-04-26T10:07:16.091Z,5.12
2019-04-26T10:09:45.859Z,4.73
2019-04-26T10:12:24.007Z,5.08
2019-04-26T10:15:10.892Z,5.20
2019-04-26T10:17:40.254Z,4.73
2019-04-26T10:20:09.843Z,5.22
2019-04-26T10:22:39.231Z,5.42
2019-04-26T10:25:16.345Z,4.80
2019-04-26T10:27:40.667Z,5.23
2019-04-26T10:30:12.367Z,5.12
2019-04-26T10:32:41.991Z,4.77
2019-04-26T10:35:11.431Z,4.80
2019-04-26T10:37:43.944Z,5.08
2019-04-26T10:40:12.120Z,5.42
2019-04-26T10:42:41.523Z,4.90
2019-04-26T10:45:14.664Z,4.45
2019-04-26T10:47:43.053Z,4.42
2019-04-26T10:50:12.831Z,4.10
2019-04-26T10:52:56.791Z,2.20
2019-04-26T10:55:46.474Z,2.67
2019-04-26T10:58:25.242Z,2.70
2019-04-26T11:00:56.371Z,2.03
2019-04-26T11:03:25.763Z,1.60
2019-04-26T11:05:55.430Z,2.12
2019-04-26T11:08:24.766Z,2.50
2019-04-26T11:10:54.598Z,1.70
2019-04-26T11:13:24.045Z,2.67
2019-04-26T11:15:53.842Z,2.72
2019-04-26T11:18:27.274Z,1.37
2019-04-26T11:20:54.260Z,1.25
2019-04-26T11:23:23.826Z,1.35
2019-04-26T11:25:53.278Z,1.87
2019-04-26T11:28:22.954Z,1.30
2019-04-26T11:30:56.966Z,2.05
2019-04-26T11:33:23.498Z,1.73
2019-04-26T11:35:52.974Z,1.97
2019-04-26T11:38:22.499Z,1.45
2019-04-26T11:41:05.106Z,1.70
2019-04-26T11:43:22.976Z,1.33
2019-04-26T11:46:03.779Z,1.25
2019-04-26T11:48:25.414Z,1.80
2019-04-26T11:50:54.755Z,1.25
2019-04-26T11:53:24.129Z,1.27
2019-04-26T11:55:53.536Z,1.20
2019-04-26T11:58:23.788Z,1.23
2019-04-26T12:01:00.119Z,0.97
2019-04-26T12:03:29.851Z,1.15
2019-04-26T12:06:09.636Z,0.93
2019-04-26T12:09:01.579Z,0.78
2019-04-26T12:11:34.991Z,1.20
2019-04-26T12:14:04.107Z,0.90
2019-04-26T12:16:46.766Z,1.00
2019-04-26T12:19:04.958Z,1.27
2019-04-26T12:21:35.092Z,1.27
2019-04-26T12:24:04.979Z,1.10
2019-04-26T12:26:42.900Z,1.07
2019-04-26T12:29:05.408Z,1.47
2019-04-26T12:31:34.840Z,1.00
2019-04-26T12:34:04.343Z,0.90
2019-04-26T12:36:33.979Z,1.80
2019-04-26T12:39:03.922Z,0.85
2019-04-26T12:41:40.455Z,1.17
2019-04-26T12:44:04.519Z,0.98
2019-04-26T12:46:41.603Z,1.27
2019-04-26T12:49:11.029Z,1.07
2019-04-26T12:51:42.912Z,1.07
2019-04-26T12:54:11.427Z,1.45
2019-04-26T12:56:40.860Z,1.30
2019-04-26T12:59:10.245Z,1.40
2019-04-26T13:01:42.622Z,1.13
2019-04-26T13:04:11.095Z,2.07
2019-04-26T13:06:47.127Z,1.40
2019-04-26T13:09:21.853Z,1.50
2019-04-26T13:12:03.899Z,1.00
2019-04-26T13:14:51.253Z,0.80
2019-04-26T13:17:23.811Z,0.63
2019-04-26T13:19:53.954Z,0.60
2019-04-26T13:22:24.361Z,0.70
2019-04-26T13:24:54.006Z,1.05
2019-04-26T13:27:23.449Z,0.77
2019-04-26T13:30:01.467Z,0.60
2019-04-26T13:32:24.732Z,0.60
2019-04-26T13:34:56.268Z,1.27
2019-04-26T13:37:25.682Z,0.98
2019-04-26T13:39:56.466Z,1.47
2019-04-26T13:42:26.069Z,1.30
2019-04-26T13:45:17.461Z,1.40
2019-04-26T13:48:15.038Z,1.40
2019-04-26T13:50:51.603Z,1.63
2019-04-26T13:53:22.268Z,1.40
2019-04-26T13:55:51.704Z,1.43
2019-04-26T13:58:25.361Z,1.20
2019-04-26T14:00:52.194Z,1.45
2019-04-26T14:03:21.671Z,1.60
2019-04-26T14:05:51.068Z,1.65
2019-04-26T14:08:20.447Z,1.17
2019-04-26T14:10:51.350Z,1.00
2019-04-26T14:13:24.577Z,1.10
2019-04-26T14:15:52.619Z,1.10
2019-04-26T14:18:22.005Z,1.50
2019-04-26T14:20:54.654Z,1.10
2019-04-26T14:23:41.399Z,0.80
2019-04-26T14:26:13.542Z,1.35
2019-04-26T14:28:43.006Z,1.30
2019-04-26T14:31:16.359Z,0.98
2019-04-26T14:33:43.829Z,0.80
2019-04-26T14:36:17.896Z,1.02
2019-04-26T14:38:44.463Z,1.02
2019-04-26T14:41:17.877Z,1.10
2019-04-26T14:43:44.957Z,1.27
2019-04-26T14:46:16.125Z,1.80
2019-04-26T14:49:00.250Z,1.00
2019-04-26T14:51:17.021Z,1.10
2019-04-26T14:53:47.450Z,1.00
2019-04-26T14:56:16.877Z,1.15
2019-04-26T14:58:46.359Z,0.90
2019-04-26T15:01:28.493Z,1.83
2019-04-26T15:04:32.918Z,1.37
2019-04-26T15:07:05.446Z,1.37
2019-04-26T15:09:36.326Z,1.70
2019-04-26T15:12:07.604Z,1.70
2019-04-26T15:14:36.860Z,1.67
2019-04-26T15:17:06.511Z,2.52
2019-04-26T15:19:36.402Z,1.90
2019-04-26T15:22:10.250Z,4.20
2019-04-26T15:24:38.637Z,3.27
2019-04-26T15:27:08.440Z,1.55
2019-04-26T15:29:38.051Z,3.58
2019-04-26T15:32:07.741Z,4.45
2019-04-26T15:34:37.653Z,2.62
2019-04-26T15:37:07.338Z,1.95
2019-04-26T15:39:58.765Z,3.20
2019-04-26T15:43:00.829Z,1.90
2019-04-26T15:45:49.523Z,1.77
2019-04-26T15:48:43.846Z,1.70
2019-04-26T15:51:14.078Z,2.10
2019-04-26T15:53:48.824Z,1.95
2019-04-26T15:56:17.719Z,2.02
2019-04-26T15:58:48.984Z,1.65
2019-04-26T16:01:17.968Z,1.70
2019-04-26T16:03:48.194Z,3.15
2019-04-26T16:06:17.604Z,4.33
2019-04-26T16:08:47.325Z,3.20
2019-04-26T16:11:16.904Z,1.50
2019-04-26T16:13:54.197Z,1.70
2019-04-26T16:16:20.539Z,2.45
2019-04-26T16:18:53.475Z,2.80
2019-04-26T16:21:20.265Z,3.12
2019-04-26T16:23:52.042Z,2.60
2019-04-26T16:26:22.798Z,2.58
2019-04-26T16:29:18.417Z,2.08
2019-04-26T16:32:16.769Z,2.62
2019-04-26T16:34:48.846Z,2.22
2019-04-26T16:37:21.653Z,1.77
2019-04-26T16:39:50.599Z,2.70
2019-04-26T16:42:20.015Z,1.50
2019-04-26T16:44:49.715Z,2.52
2019-04-26T16:47:19.675Z,2.60
2019-04-26T16:49:49.248Z,1.90
2019-04-26T16:52:19.237Z,2.20
2019-04-26T16:54:48.892Z,2.52
2019-04-26T16:57:18.270Z,2.00
2019-04-26T16:59:54.392Z,2.27
2019-04-26T17:02:25.534Z,2.95
2019-04-26T17:04:50.306Z,2.33
2019-04-26T17:07:25.387Z,2.08
2019-04-26T17:09:57.673Z,1.80
2019-04-26T17:12:22.620Z,2.27
2019-04-26T17:14:53.648Z,2.37
2019-04-26T17:17:23.279Z,1.82
2019-04-26T17:19:52.795Z,2.15
2019-04-26T17:22:41.960Z,2.65
2019-04-26T17:25:06.728Z,2.80
2019-04-26T17:27:36.296Z,2.55
2019-04-26T17:30:08.669Z,2.35
2019-04-26T17:32:38.131Z,2.50
2019-04-26T17:35:07.854Z,2.37
2019-04-26T17:37:37.402Z,2.05
2019-04-26T17:40:07.106Z,2.17
2019-04-26T17:42:36.742Z,2.40
2019-04-26T17:45:07.266Z,1.85
2019-04-26T17:47:40.046Z,2.30
2019-04-26T17:50:08.549Z,1.95
2019-04-26T17:52:37.974Z,1.95
2019-04-26T17:55:07.878Z,2.37
2019-04-26T17:57:43.585Z,1.95
2019-04-26T18:00:13.777Z,2.30
2019-04-26T18:02:47.781Z,2.58
2019-04-26T18:05:13.082Z,2.00
2019-04-26T18:07:50.243Z,2.12
2019-04-26T18:10:13.781Z,2.70
2019-04-26T18:12:45.755Z,2.40
2019-04-26T18:15:18.857Z,2.00
2019-04-26T18:18:17.669Z,2.40
2019-04-26T18:21:24.161Z,2.35
2019-04-26T18:23:57.008Z,2.25
2019-04-26T18:26:25.160Z,1.90
2019-04-26T18:28:55.877Z,2.85
2019-04-26T18:31:28.554Z,2.80
2019-04-26T18:34:00.650Z,2.33
2019-04-26T18:36:31.328Z,2.33
2019-04-26T18:38:58.698Z,2.37
2019-04-26T18:41:28.980Z,2.30
2019-04-26T18:44:00.145Z,2.50
2019-04-26T18:46:40.437Z,2.40
2019-04-26T18:49:11.367Z,2.67
2019-04-26T18:51:43.290Z,2.25
2019-04-26T18:54:17.980Z,4.17
2019-04-26T18:56:51.469Z,2.87
2019-04-26T18:59:23.028Z,2.60
2019-04-26T19:01:53.469Z,2.80
2019-04-26T19:04:23.633Z,2.58
2019-04-26T19:06:56.952Z,3.23
2019-04-26T19:09:27.494Z,2.80
2019-04-26T19:11:57.005Z,2.73
2019-04-26T19:14:49.728Z,2.80
2019-04-26T19:17:26.104Z,2.93
2019-04-26T19:20:14.531Z,3.33
2019-04-26T19:22:53.262Z,3.12
2019-04-26T19:25:23.888Z,2.90
2019-04-26T19:27:54.065Z,3.17
2019-04-26T19:30:24.198Z,3.10
2019-04-26T19:32:55.661Z,3.50
2019-04-26T19:35:25.455Z,3.27
2019-04-26T19:37:55.108Z,3.37
2019-04-26T19:40:27.310Z,4.03
2019-04-26T19:42:57.565Z,3.17
2019-04-26T19:45:49.554Z,3.13
2019-04-26T19:48:41.789Z,3.23
2019-04-26T19:51:36.488Z,2.90
2019-04-26T19:54:38.436Z,3.23
2019-04-26T19:57:13.496Z,3.30
2019-04-26T19:59:43.025Z,3.40
2019-04-26T20:02:15.097Z,3.30
2019-04-26T20:04:44.762Z,2.92
2019-04-26T20:07:14.512Z,3.13
2019-04-26T20:09:44.325Z,2.80
2019-04-26T20:12:13.935Z,2.97
2019-04-26T20:14:50.370Z,2.77
2019-04-26T20:17:19.938Z,2.90
2019-04-26T20:19:47.781Z,2.80
2019-04-26T20:22:22.061Z,3.33
2019-04-26T20:24:53.069Z,3.23
2019-04-26T20:27:23.992Z,3.20
2019-04-26T20:29:51.678Z,3.07
2019-04-26T20:32:32.024Z,3.03
2019-04-26T20:35:05.663Z,2.80
2019-04-26T20:37:35.293Z,2.50
2019-04-26T20:40:18.542Z,3.57
2019-04-26T20:42:36.756Z,4.00
2019-04-26T20:45:08.537Z,3.40
2019-04-26T20:47:37.802Z,3.70
2019-04-26T20:50:07.821Z,2.73
2019-04-26T20:52:37.422Z,3.77
2019-04-26T20:55:07.212Z,3.07
2019-04-26T20:57:36.862Z,3.07
2019-04-26T21:00:07.097Z,3.10
2019-04-26T21:02:36.867Z,4.00
2019-04-26T21:05:11.246Z,2.87
2019-04-26T21:07:38.491Z,2.83
2019-04-26T21:10:08.491Z,3.40
2019-04-26T21:12:38.044Z,3.25
2019-04-26T21:15:07.828Z,3.70
2019-04-26T21:17:41.521Z,3.47
2019-04-26T21:20:14.165Z,2.83
2019-04-26T21:22:43.519Z,2.77
2019-04-26T21:25:32.538Z,2.60
2019-04-26T21:28:08.081Z,2.63
2019-04-26T21:30:51.574Z,3.45
2019-04-26T21:33:24.286Z,1.60
2019-04-26T21:36:09.978Z,2.98
2019-04-26T21:38:43.914Z,2.43
2019-04-26T21:41:16.905Z,1.90
2019-04-26T21:43:46.389Z,2.10
2019-04-26T21:46:20.060Z,1.93
2019-04-26T21:48:46.816Z,2.10
2019-04-26T21:51:16.350Z,2.37
2019-04-26T21:53:45.716Z,2.20
2019-04-26T21:56:15.094Z,2.17
2019-04-26T21:58:46.089Z,3.40
2019-04-26T22:01:19.613Z,3.37
2019-04-26T22:03:54.053Z,2.67
2019-04-26T22:06:24.528Z,2.53
2019-04-26T22:09:13.666Z,2.30
2019-04-26T22:11:44.432Z,2.30
2019-04-26T22:14:23.502Z,2.10
2019-04-26T22:17:02.053Z,2.23
2019-04-26T22:19:48.466Z,2.30
2019-04-26T22:22:47.396Z,3.00
2019-04-26T22:25:17.950Z,2.57
2019-04-26T22:27:47.330Z,3.07
2019-04-26T22:30:22.748Z,2.40
2019-04-26T22:32:58.012Z,2.30
2019-04-26T22:35:23.547Z,2.57
2019-04-26T22:37:53.749Z,2.47
2019-04-26T22:40:23.414Z,2.20
2019-04-26T22:42:58.008Z,2.60
2019-04-26T22:45:34.700Z,2.60
2019-04-26T22:48:11.650Z,2.17
2019-04-26T22:50:40.867Z,2.50
2019-04-26T22:53:11.920Z,2.87
2019-04-26T22:55:43.449Z,2.37
2019-04-26T22:58:13.452Z,2.27
2019-04-26T23:00:43.597Z,2.53
2019-04-26T23:03:13.727Z,2.60
2019-04-26T23:05:43.365Z,2.63
2019-04-26T23:08:13.580Z,2.37
2019-04-26T23:10:48.527Z,2.60
2019-04-26T23:13:37.805Z,2.50
2019-04-26T23:16:14.348Z,2.63
2019-04-26T23:19:01.347Z,2.63
2019-04-26T23:21:36.771Z,2.60
2019-04-26T23:24:06.138Z,2.67
2019-04-26T23:26:37.436Z,2.50
2019-04-26T23:29:08.728Z,2.63
2019-04-26T23:31:41.174Z,2.50
2019-04-26T23:34:08.600Z,2.80
2019-04-26T23:36:38.000Z,3.03
2019-04-26T23:39:12.169Z,2.87
2019-04-26T23:41:41.706Z,2.90
2019-04-26T23:44:10.043Z,3.30
2019-04-26T23:46:39.443Z,2.97
2019-04-26T23:49:08.875Z,3.33
2019-04-26T23:51:42.498Z,3.17
2019-04-26T23:54:09.267Z,3.17
2019-04-26T23:56:38.655Z,3.47
2019-04-26T23:59:08.073Z,3.50
